Dauphin Barker Airport
CYDN : now visible

Airfield :











YOU CAN JOIN US ON...

 
LOGIN :

Register | Disclaimer

   EN    FR    IT 

 









Legend :    VFR   Marginal VFR   IFR   Intensive IFR   Very Intensive IFR
Visi :
Ceiling :
>= 8 km
>= 3000ft
5 to 8 km
1000 to 3000 ft
1500m to 5 km
500 to 1000 ft
800 to 1500m
200 to 500 ft
< 800m
< 200 ft
Symbols :   Thunderstorms  Fog  Heavy snow  Heavy precipitations  Wind > 20 kt






- Airport Elevation : 999 ft
- IATA code : YDN


CYDN - Dauphin Barker

CURRENT METAR :
  • 080800Z AUTO 03011G17KT 9SM FEW150 M18/M21 A3002 RMK SLP194

EXPIRED METARs :
  • 080700Z AUTO 01011G17KT 9SM FEW020 BKN140 M16/M20 A3000 RMK SLP185
  • 080619Z AUTO 02014KT 9SM SCT024 OVC140 M14/M17 A2997 RMK SLP175
  • 080600Z AUTO 02016KT 9SM BKN024 OVC140 M14/M17 A2996 RMK SLP171

TAF TAF CYDN
Valid from the 08 at 06:00 until the 08 at 18:00 UTC


080550Z 0806/0818 01012G22KT P6SM BKN025 BKN070 OVC120
TEMPO 0806/0809 5SM -SN BKN020 OVC070
FM080900 01012G22KT P6SM SCT020 BKN120
BECMG 0815/0817 01010KT RMK FCST BASED ON AUTO OBS. NXT FCST BY 081200Z



MET'MAP, your aeronautical weather chart ! - Copyright ORBIFLY December 2007 - Disclaimer

ORBIFLY MET'MAP TEAM :

Programming & Development : Alexandra Zaïnal
Concept & original design : Baudouin d'Aumeries
Assistance for programming : Marc-Olivier Méhu
Technical & hardware support : Manuel Goepfert

Contact : metmap@orbifly.com




SOURCES & CREDITS :

   NOAA       Earth
Advisory